AZQ4191 EDDP-EKYT
Flight info
| Callsign | AZQ4191 |
|---|---|
| Flight time | 1h 1m |
| Altitude | 40000 |
| Route | PENEM1N PENEM Y233 EMBOX L986 POVEL M852 HAM DCT EKERN/N0442F390 DCT ALASA M852 ALS P615 AAL |
| Aircraft | IL76/H-SDFGHIM1RTUWXY/LB1 |
Departure
| Time | 2026-05-04 15:48 |
|---|---|
| Airport | Leipzig/Halle Airport (EDDP) |
Arrival
| Time | 2026-05-04 16:49 |
|---|---|
| Airport | Aalborg Airport (EKYT) |
| Time | Latitude | Longitude | Altitude | Speed | Heading |
|---|---|---|---|---|---|
| 2026-05-04 14:58 | 51.40917 | 12.22885 | 473 ft | 0 kts | 176° |
| 2026-05-04 15:38 | 51.40938 | 12.22882 | 472 ft | 4 kts | 176° |
| 2026-05-04 15:38 | 51.40965 | 12.22879 | 467 ft | 4 kts | 176° |
| 2026-05-04 15:39 | 51.40986 | 12.22877 | 466 ft | 4 kts | 174° |
| 2026-05-04 15:39 | 51.41009 | 12.22867 | 468 ft | 5 kts | 124° |
| 2026-05-04 15:39 | 51.41012 | 12.22816 | 471 ft | 4 kts | 86° |
| 2026-05-04 15:42 | 51.41013 | 12.22831 | 467 ft | 3 kts | 86° |
| 2026-05-04 15:42 | 51.41015 | 12.22876 | 467 ft | 5 kts | 86° |
| 2026-05-04 15:42 | 51.41019 | 12.22967 | 474 ft | 11 kts | 86° |
| 2026-05-04 15:43 | 51.41025 | 12.23107 | 477 ft | 14 kts | 85° |
| 2026-05-04 15:43 | 51.41035 | 12.23291 | 472 ft | 19 kts | 85° |
| 2026-05-04 15:43 | 51.41046 | 12.23522 | 470 ft | 22 kts | 85° |
| 2026-05-04 15:43 | 51.41057 | 12.23775 | 477 ft | 24 kts | 86° |
| 2026-05-04 15:44 | 51.41068 | 12.24044 | 475 ft | 23 kts | 85° |
| 2026-05-04 15:44 | 51.41081 | 12.24284 | 474 ft | 20 kts | 85° |
| 2026-05-04 15:44 | 51.41093 | 12.24517 | 475 ft | 22 kts | 85° |
| 2026-05-04 15:44 | 51.41104 | 12.24770 | 472 ft | 24 kts | 86° |
| 2026-05-04 15:45 | 51.41116 | 12.25042 | 478 ft | 25 kts | 85° |
| 2026-05-04 15:45 | 51.41129 | 12.25335 | 478 ft | 27 kts | 84° |
| 2026-05-04 15:45 | 51.41143 | 12.25567 | 480 ft | 12 kts | 77° |
| 2026-05-04 15:45 | 51.41199 | 12.25628 | 480 ft | 11 kts | 5° |
| 2026-05-04 15:46 | 51.41281 | 12.25618 | 485 ft | 13 kts | 353° |
| 2026-05-04 15:46 | 51.41374 | 12.25563 | 480 ft | 15 kts | 321° |
| 2026-05-04 15:46 | 51.41395 | 12.25446 | 483 ft | 9 kts | 263° |
| 2026-05-04 15:46 | 51.41394 | 12.25438 | 483 ft | 0 kts | 264° |
| 2026-05-04 15:47 | 51.41386 | 12.25260 | 478 ft | 53 kts | 266° |
| 2026-05-04 15:47 | 51.41337 | 12.24192 | 482 ft | 136 kts | 266° |
| 2026-05-04 15:47 | 51.41230 | 12.22403 | 823 ft | 174 kts | 264° |
| 2026-05-04 15:48 | 51.41106 | 12.20477 | 1913 ft | 172 kts | 265° |
| 2026-05-04 15:48 | 51.41012 | 12.18560 | 2937 ft | 179 kts | 266° |
| 2026-05-04 15:48 | 51.41306 | 12.14461 | 4826 ft | 204 kts | 307° |
| 2026-05-04 15:49 | 51.42310 | 12.12746 | 5872 ft | 216 kts | 315° |
| 2026-05-04 15:49 | 51.43531 | 12.11260 | 6996 ft | 227 kts | 326° |
| 2026-05-04 15:49 | 51.44998 | 12.10134 | 8087 ft | 241 kts | 337° |
| 2026-05-04 15:49 | 51.46651 | 12.09348 | 9234 ft | 255 kts | 344° |
| 2026-05-04 15:50 | 51.48446 | 12.08829 | 10320 ft | 271 kts | 349° |
| 2026-05-04 15:50 | 51.50419 | 12.08491 | 11041 ft | 299 kts | 353° |
| 2026-05-04 15:50 | 51.52577 | 12.08295 | 11830 ft | 321 kts | 355° |
| 2026-05-04 15:50 | 51.54875 | 12.08245 | 12703 ft | 339 kts | 358° |
| 2026-05-04 15:51 | 51.57262 | 12.08288 | 13638 ft | 353 kts | 358° |
| 2026-05-04 15:51 | 51.59763 | 12.08349 | 14539 ft | 365 kts | 358° |
| 2026-05-04 15:51 | 51.62338 | 12.08444 | 15455 ft | 375 kts | 359° |
| 2026-05-04 15:51 | 51.64983 | 12.08532 | 16304 ft | 386 kts | 358° |
| 2026-05-04 15:52 | 51.67723 | 12.08614 | 17012 ft | 400 kts | 359° |
| 2026-05-04 15:52 | 51.70537 | 12.08361 | 17639 ft | 410 kts | 345° |
| 2026-05-04 15:52 | 51.73138 | 12.06486 | 18375 ft | 412 kts | 322° |
| 2026-05-04 15:52 | 51.75116 | 12.03183 | 19153 ft | 411 kts | 304° |
| 2026-05-04 15:53 | 51.76752 | 11.99370 | 19996 ft | 414 kts | 302° |
| 2026-05-04 15:53 | 51.78491 | 11.95622 | 20799 ft | 420 kts | 306° |
| 2026-05-04 15:53 | 51.80391 | 11.92003 | 21596 ft | 426 kts | 308° |
| 2026-05-04 15:53 | 51.82388 | 11.88430 | 22398 ft | 431 kts | 309° |
| 2026-05-04 15:54 | 51.84426 | 11.84843 | 23199 ft | 435 kts | 309° |
| 2026-05-04 15:54 | 51.86322 | 11.81095 | 23894 ft | 437 kts | 303° |
| 2026-05-04 15:54 | 51.88072 | 11.76974 | 24588 ft | 440 kts | 300° |
| 2026-05-04 15:54 | 51.89747 | 11.72881 | 25272 ft | 443 kts | 300° |
| 2026-05-04 15:55 | 51.91472 | 11.68719 | 25964 ft | 446 kts | 300° |
| 2026-05-04 15:55 | 51.93229 | 11.64544 | 26644 ft | 450 kts | 301° |
| 2026-05-04 15:55 | 51.95011 | 11.60354 | 27356 ft | 453 kts | 300° |
| 2026-05-04 15:55 | 51.96782 | 11.56180 | 28489 ft | 444 kts | 300° |
| 2026-05-04 15:56 | 51.98529 | 11.52097 | 29703 ft | 437 kts | 300° |
| 2026-05-04 15:56 | 52.00241 | 11.48056 | 30634 ft | 433 kts | 300° |
| 2026-05-04 15:56 | 52.01932 | 11.44039 | 31514 ft | 428 kts | 299° |
| 2026-05-04 15:56 | 52.03601 | 11.40058 | 32426 ft | 424 kts | 299° |
| 2026-05-04 15:57 | 52.05260 | 11.36127 | 33347 ft | 419 kts | 300° |
| 2026-05-04 15:57 | 52.06606 | 11.32071 | 34193 ft | 407 kts | 285° |
| 2026-05-04 15:57 | 52.07196 | 11.27622 | 34888 ft | 401 kts | 276° |
| 2026-05-04 15:57 | 52.07578 | 11.23136 | 35533 ft | 400 kts | 276° |
| 2026-05-04 15:58 | 52.08037 | 11.18661 | 36114 ft | 401 kts | 277° |
| 2026-05-04 15:58 | 52.08591 | 11.14207 | 36693 ft | 402 kts | 279° |
| 2026-05-04 15:58 | 52.09183 | 11.09762 | 37279 ft | 402 kts | 279° |
| 2026-05-04 15:58 | 52.09785 | 11.05312 | 37824 ft | 403 kts | 279° |
| 2026-05-04 15:59 | 52.10389 | 11.00859 | 38355 ft | 404 kts | 279° |
| 2026-05-04 15:59 | 52.10996 | 10.96393 | 38831 ft | 404 kts | 279° |
| 2026-05-04 15:59 | 52.11606 | 10.91918 | 39227 ft | 405 kts | 280° |
| 2026-05-04 15:59 | 52.12632 | 10.87630 | 39616 ft | 413 kts | 297° |
| 2026-05-04 16:00 | 52.14504 | 10.84064 | 39823 ft | 429 kts | 317° |
| 2026-05-04 16:00 | 52.17137 | 10.81703 | 39941 ft | 439 kts | 338° |
| 2026-05-04 16:00 | 52.20183 | 10.80838 | 39956 ft | 450 kts | 352° |
| 2026-05-04 16:00 | 52.23333 | 10.80734 | 39955 ft | 454 kts | 355° |
| 2026-05-04 16:01 | 52.29639 | 10.80437 | 39953 ft | 452 kts | 351° |
| 2026-05-04 16:01 | 52.35912 | 10.79588 | 39946 ft | 451 kts | 349° |
| 2026-05-04 16:02 | 52.41962 | 10.77306 | 39982 ft | 444 kts | 338° |
| 2026-05-04 16:03 | 52.50849 | 10.73085 | 39959 ft | 446 kts | 340° |
| 2026-05-04 16:03 | 52.56840 | 10.70440 | 39966 ft | 446 kts | 340° |
| 2026-05-04 16:04 | 52.62840 | 10.67791 | 39968 ft | 446 kts | 340° |
| 2026-05-04 16:04 | 52.71836 | 10.63810 | 39966 ft | 446 kts | 340° |
| 2026-05-04 16:05 | 52.77832 | 10.61153 | 39968 ft | 446 kts | 340° |
| 2026-05-04 16:06 | 52.86820 | 10.57138 | 39969 ft | 445 kts | 340° |
| 2026-05-04 16:07 | 52.98764 | 10.51900 | 39973 ft | 444 kts | 340° |
| 2026-05-04 16:08 | 53.10730 | 10.46607 | 39961 ft | 445 kts | 341° |
| 2026-05-04 16:09 | 53.25660 | 10.39978 | 39961 ft | 444 kts | 341° |
| 2026-05-04 16:10 | 53.37549 | 10.34674 | 39969 ft | 443 kts | 341° |
| 2026-05-04 16:11 | 53.49443 | 10.29244 | 39972 ft | 442 kts | 341° |
| 2026-05-04 16:12 | 53.67250 | 10.21100 | 39972 ft | 442 kts | 341° |
| 2026-05-04 16:13 | 53.79184 | 10.16107 | 39974 ft | 443 kts | 342° |
| 2026-05-04 16:14 | 53.91183 | 10.11146 | 39987 ft | 444 kts | 342° |
| 2026-05-04 16:16 | 54.06185 | 10.04938 | 39986 ft | 444 kts | 342° |
| 2026-05-04 16:17 | 54.21226 | 9.98666 | 39992 ft | 445 kts | 342° |
| 2026-05-04 16:18 | 54.33238 | 9.93644 | 39996 ft | 446 kts | 342° |
| 2026-05-04 16:19 | 54.48324 | 9.87295 | 39989 ft | 447 kts | 342° |
| 2026-05-04 16:20 | 54.57559 | 9.87708 | 39991 ft | 462 kts | 14° |
| 2026-05-04 16:20 | 54.63761 | 9.90603 | 40001 ft | 461 kts | 8° |
| 2026-05-04 16:22 | 54.79505 | 9.95644 | 39983 ft | 460 kts | 7° |
| 2026-05-04 16:23 | 54.98382 | 9.99494 | 39996 ft | 453 kts | 354° |
| 2026-05-04 16:25 | 55.17384 | 9.99324 | 39376 ft | 458 kts | 355° |
| 2026-05-04 16:26 | 55.30065 | 9.99310 | 37300 ft | 455 kts | 355° |
| 2026-05-04 16:26 | 55.38506 | 9.99324 | 35900 ft | 455 kts | 355° |
| 2026-05-04 16:27 | 55.44854 | 9.99340 | 34906 ft | 457 kts | 356° |
| 2026-05-04 16:28 | 55.54359 | 9.99372 | 33389 ft | 451 kts | 356° |
| 2026-05-04 16:28 | 55.63648 | 9.99403 | 31773 ft | 438 kts | 356° |
| 2026-05-04 16:29 | 55.75619 | 9.99356 | 29737 ft | 425 kts | 357° |
| 2026-05-04 16:30 | 55.84380 | 9.99317 | 28060 ft | 414 kts | 356° |
| 2026-05-04 16:31 | 55.90103 | 9.99304 | 27004 ft | 408 kts | 356° |
| 2026-05-04 16:31 | 55.98405 | 9.99387 | 25581 ft | 388 kts | 356° |
| 2026-05-04 16:32 | 56.06345 | 9.99361 | 24140 ft | 376 kts | 355° |
| 2026-05-04 16:33 | 56.11541 | 9.99373 | 23155 ft | 370 kts | 355° |
| 2026-05-04 16:33 | 56.16645 | 9.99467 | 22069 ft | 365 kts | 358° |
| 2026-05-04 16:34 | 56.21690 | 10.00346 | 21014 ft | 361 kts | 1° |
| 2026-05-04 16:34 | 56.24170 | 10.00869 | 20511 ft | 358 kts | 1° |
| 2026-05-04 16:35 | 56.31477 | 10.02414 | 19036 ft | 350 kts | 1° |
| 2026-05-04 16:35 | 56.38658 | 10.03892 | 17548 ft | 343 kts | 1° |
| 2026-05-04 16:36 | 56.41015 | 10.04370 | 17002 ft | 339 kts | 0° |
| 2026-05-04 16:36 | 56.45684 | 10.05333 | 15968 ft | 335 kts | 0° |
| 2026-05-04 16:37 | 56.50276 | 10.06283 | 14969 ft | 329 kts | 0° |
| 2026-05-04 16:37 | 56.52547 | 10.06762 | 14481 ft | 327 kts | 0° |
| 2026-05-04 16:37 | 56.57046 | 10.07698 | 13497 ft | 323 kts | 0° |
| 2026-05-04 16:38 | 56.61476 | 10.08642 | 12437 ft | 318 kts | 1° |
| 2026-05-04 16:39 | 56.67967 | 10.10026 | 10908 ft | 310 kts | 1° |
| 2026-05-04 16:39 | 56.72228 | 10.10908 | 9934 ft | 305 kts | 1° |
| 2026-05-04 16:40 | 56.76423 | 10.11761 | 8886 ft | 301 kts | 1° |
| 2026-05-04 16:40 | 56.80516 | 10.12632 | 7862 ft | 288 kts | 2° |
| 2026-05-04 16:41 | 56.84416 | 10.13465 | 6873 ft | 280 kts | 2° |
| 2026-05-04 16:41 | 56.90149 | 10.14672 | 5358 ft | 273 kts | 2° |
| 2026-05-04 16:42 | 56.95733 | 10.15842 | 3844 ft | 265 kts | 2° |
| 2026-05-04 16:43 | 56.99359 | 10.16619 | 3143 ft | 259 kts | 2° |
| 2026-05-04 16:43 | 57.02932 | 10.17366 | 3008 ft | 258 kts | 2° |
| 2026-05-04 16:43 | 57.04692 | 10.17754 | 2992 ft | 257 kts | 2° |
| 2026-05-04 16:44 | 57.10951 | 10.15603 | 2459 ft | 209 kts | 307° |
| 2026-05-04 16:45 | 57.11150 | 10.10810 | 2296 ft | 186 kts | 264° |
| 2026-05-04 16:46 | 57.10722 | 10.04156 | 2292 ft | 171 kts | 265° |
| 2026-05-04 16:46 | 57.10442 | 9.99852 | 1489 ft | 166 kts | 265° |
| 2026-05-04 16:47 | 57.10182 | 9.95828 | 932 ft | 155 kts | 265° |
| 2026-05-04 16:47 | 57.09947 | 9.92207 | 539 ft | 131 kts | 264° |
| 2026-05-04 16:48 | 57.09657 | 9.87775 | 55 ft | 105 kts | 266° |
| 2026-05-04 16:48 | 57.09582 | 9.86565 | 26 ft | 80 kts | 263° |
| 2026-05-04 16:49 | 57.09518 | 9.85707 | 29 ft | 9 kts | 224° |
| 2026-05-04 16:49 | 57.09387 | 9.85823 | 27 ft | 14 kts | 142° |
| 2026-05-04 16:50 | 57.09195 | 9.86094 | 28 ft | 20 kts | 143° |
| 2026-05-04 16:50 | 57.08966 | 9.86416 | 28 ft | 22 kts | 142° |
| 2026-05-04 16:51 | 57.08753 | 9.86724 | 26 ft | 15 kts | 141° |
| 2026-05-04 16:51 | 57.08676 | 9.86847 | 27 ft | 13 kts | 137° |
| 2026-05-04 16:51 | 57.08573 | 9.86981 | 29 ft | 8 kts | 171° |
| 2026-05-04 16:52 | 57.08520 | 9.87025 | 28 ft | 2 kts | 130° |
| 2026-05-04 16:52 | 57.08520 | 9.87026 | 28 ft | 0 kts | 131° |